Time;durP1;ratioP1;P1;durP2;ratioP2;P2;SDS_P1;SDS_P2;PMS_P1;PMS_P2;Temp;Humidity;BMP_temperature;BMP_pressure;BME280_temperature;BME280_humidity;BME280_pressure;Samples;Min_cycle;Max_cycle;Signal;HPM_P1;HPM_P2
2022/12/19 00:01:21;;;;;;;55.73;31.23;;;1.80;99.90;;;;;;6185986;23;20269;-84
2022/12/19 00:03:50;;;;;;;57.43;30.77;;;1.90;99.90;;;;;;6186462;23;20218;-84
2022/12/19 00:06:19;;;;;;;57.40;30.63;;;1.90;99.90;;;;;;6187017;23;20210;-85
2022/12/19 00:08:47;;;;;;;49.97;29.40;;;1.90;99.90;;;;;;6186872;23;20178;-85
2022/12/19 00:11:17;;;;;;;51.37;30.40;;;1.90;99.90;;;;;;6188019;23;20442;-86
2022/12/19 00:13:44;;;;;;;55.63;30.50;;;1.90;99.90;;;;;;6187802;23;20250;-86
2022/12/19 00:16:13;;;;;;;53.63;28.90;;;1.90;99.90;;;;;;6188029;23;20198;-85
2022/12/19 00:18:42;;;;;;;54.63;28.97;;;1.90;99.90;;;;;;6188013;23;20166;-85
2022/12/19 00:21:11;;;;;;;52.43;28.03;;;2.00;99.90;;;;;;6188017;23;20257;-85
2022/12/19 00:23:38;;;;;;;51.50;29.20;;;2.00;99.90;;;;;;6187969;23;20246;-83
2022/12/19 00:26:11;;;;;;;53.87;28.97;;;2.00;99.90;;;;;;6188128;23;20197;-87
2022/12/19 00:28:39;;;;;;;53.10;30.37;;;2.00;99.90;;;;;;6187405;23;20166;-87
2022/12/19 00:31:07;;;;;;;49.47;26.93;;;2.00;99.90;;;;;;6188031;23;20536;-85
2022/12/19 00:33:34;;;;;;;55.17;28.53;;;2.00;99.90;;;;;;6188106;23;20309;-86
2022/12/19 00:36:04;;;;;;;54.37;28.30;;;2.00;99.90;;;;;;6188296;23;20170;-84
2022/12/19 00:38:31;;;;;;;51.83;27.27;;;2.00;99.90;;;;;;6186142;23;20187;-85
2022/12/19 00:41:07;;;;;;;51.20;30.67;;;2.00;99.90;;;;;;6187749;23;20167;-86
2022/12/19 00:43:33;;;;;;;49.33;28.03;;;2.00;99.90;;;;;;6187752;23;20249;-87
2022/12/19 00:46:03;;;;;;;55.23;30.37;;;2.00;99.90;;;;;;6188080;23;20269;-85
2022/12/19 00:48:30;;;;;;;57.67;30.00;;;2.10;99.90;;;;;;6188054;23;20171;-84
2022/12/19 00:51:01;;;;;;;53.50;29.00;;;2.10;99.90;;;;;;6187762;23;20241;-86
2022/12/19 00:53:29;;;;;;;55.03;29.27;;;2.10;99.90;;;;;;6186509;23;20193;-87
2022/12/19 00:55:56;;;;;;;51.83;28.57;;;2.10;99.90;;;;;;6186008;23;20167;-86
2022/12/19 00:58:23;;;;;;;49.90;27.53;;;2.10;99.90;;;;;;6185653;23;20190;-87
2022/12/19 01:00:50;;;;;;;54.30;29.67;;;2.20;99.90;;;;;;6186765;23;20195;-86
2022/12/19 01:03:18;;;;;;;55.43;30.33;;;2.10;99.90;;;;;;6187534;23;20244;-86
2022/12/19 01:05:45;;;;;;;49.33;27.47;;;2.20;99.90;;;;;;6186811;23;20187;-86
2022/12/19 01:08:12;;;;;;;54.83;28.50;;;2.20;99.90;;;;;;6187389;23;20250;-84
2022/12/19 01:10:45;;;;;;;53.17;28.77;;;2.20;99.90;;;;;;6185720;23;20171;-86
2022/12/19 01:13:11;;;;;;;57.83;29.57;;;2.20;99.90;;;;;;6186272;23;20190;-86
2022/12/19 01:15:40;;;;;;;55.17;28.43;;;2.20;99.90;;;;;;6186146;23;20167;-86
2022/12/19 01:18:09;;;;;;;53.43;27.93;;;2.30;99.90;;;;;;6185903;23;20167;-85
2022/12/19 01:20:38;;;;;;;49.43;27.63;;;2.30;99.90;;;;;;6185816;23;20167;-86
2022/12/19 01:23:05;;;;;;;50.47;27.90;;;2.30;99.90;;;;;;6185327;23;20249;-86
2022/12/19 01:25:33;;;;;;;48.20;28.07;;;2.30;99.90;;;;;;6185191;23;20194;-85
2022/12/19 01:28:00;;;;;;;52.10;29.63;;;2.30;99.90;;;;;;6185281;23;20175;-86
2022/12/19 01:30:29;;;;;;;54.43;29.17;;;2.40;99.90;;;;;;6185600;23;20178;-85
2022/12/19 01:32:56;;;;;;;49.10;28.23;;;2.40;99.90;;;;;;6185670;23;20171;-87
2022/12/19 01:35:24;;;;;;;52.10;28.87;;;2.40;99.90;;;;;;6186104;23;20198;-84
2022/12/19 01:37:53;;;;;;;51.30;28.63;;;2.40;99.90;;;;;;6185967;23;20499;-86
2022/12/19 01:40:21;;;;;;;50.87;27.87;;;2.40;99.90;;;;;;6185826;23;20242;-86
2022/12/19 01:42:49;;;;;;;54.97;29.47;;;2.40;99.90;;;;;;6186322;23;20606;-86
2022/12/19 01:45:27;;;;;;;53.37;28.43;;;2.50;99.90;;;;;;6185777;23;20301;-87
2022/12/19 01:48:01;;;;;;;55.77;28.53;;;2.50;99.90;;;;;;6185099;23;20178;-86
2022/12/19 01:50:34;;;;;;;61.43;30.03;;;2.50;99.90;;;;;;6187416;23;20206;-85
2022/12/19 01:53:03;;;;;;;51.43;28.13;;;2.50;99.90;;;;;;6186066;23;20167;-85
2022/12/19 01:55:30;;;;;;;57.43;29.40;;;2.60;99.90;;;;;;6187196;23;20163;-86
2022/12/19 01:57:59;;;;;;;54.73;29.20;;;2.60;99.90;;;;;;6187058;23;20178;-85
2022/12/19 02:00:26;;;;;;;69.43;31.60;;;2.60;99.90;;;;;;6186556;23;20254;-86
2022/12/19 02:02:57;;;;;;;55.10;30.83;;;2.60;99.90;;;;;;6188066;23;20269;-86
2022/12/19 02:05:24;;;;;;;63.13;30.40;;;2.60;99.90;;;;;;6187849;23;20205;-85
2022/12/19 02:07:52;;;;;;;58.40;31.47;;;2.60;99.90;;;;;;6188526;23;20575;-86
2022/12/19 02:10:21;;;;;;;60.73;31.70;;;2.60;99.90;;;;;;6189229;23;20199;-85
2022/12/19 02:12:48;;;;;;;57.57;31.80;;;2.60;99.90;;;;;;6187297;23;20190;-86
2022/12/19 02:15:16;;;;;;;56.57;30.87;;;2.70;99.90;;;;;;6185215;23;20254;-86
2022/12/19 02:17:54;;;;;;;68.03;31.43;;;2.70;99.90;;;;;;6185800;23;20181;-86
2022/12/19 02:20:45;;;;;;;57.13;30.00;;;2.70;99.90;;;;;;6186428;23;20245;-85
2022/12/19 02:23:55;;;;;;;55.00;29.97;;;2.70;99.90;;;;;;6182113;23;20174;-85
2022/12/19 02:26:44;;;;;;;54.93;30.43;;;2.80;99.90;;;;;;6186798;23;20642;-85
2022/12/19 02:29:48;;;;;;;59.63;29.57;;;2.80;99.90;;;;;;6186727;23;20201;-86
2022/12/19 02:32:21;;;;;;;58.70;31.27;;;2.80;99.90;;;;;;6186577;23;20169;-86
2022/12/19 02:34:56;;;;;;;61.87;29.93;;;2.80;99.90;;;;;;6186350;23;20429;-84
2022/12/19 02:37:28;;;;;;;61.03;30.47;;;2.90;99.90;;;;;;6186264;23;20163;-86
2022/12/19 02:39:58;;;;;;;52.77;29.27;;;2.90;99.90;;;;;;6186416;23;20603;-85
2022/12/19 02:42:28;;;;;;;58.47;31.30;;;3.00;99.90;;;;;;6186691;23;20171;-84
2022/12/19 02:44:58;;;;;;;53.23;28.47;;;3.00;99.90;;;;;;6187018;23;20569;-85
2022/12/19 02:47:28;;;;;;;59.00;31.03;;;3.00;99.90;;;;;;6186697;23;20222;-86
2022/12/19 02:49:55;;;;;;;57.67;30.03;;;3.10;99.90;;;;;;6186580;23;20273;-86
2022/12/19 02:52:44;;;;;;;59.87;30.33;;;3.10;99.90;;;;;;6187211;23;20254;-85
2022/12/19 02:55:17;;;;;;;57.30;29.40;;;3.10;99.90;;;;;;6186408;23;20535;-85
2022/12/19 02:58:15;;;;;;;61.27;30.13;;;3.10;99.90;;;;;;6186587;23;20190;-86
2022/12/19 03:00:50;;;;;;;53.20;30.07;;;3.20;99.90;;;;;;6186782;23;20187;-85
2022/12/19 03:03:23;;;;;;;51.37;27.77;;;3.20;99.90;;;;;;6186592;23;20240;-86
2022/12/19 03:06:03;;;;;;;56.70;29.17;;;3.20;99.90;;;;;;6187124;23;20269;-86
2022/12/19 03:08:37;;;;;;;52.10;29.07;;;3.30;99.90;;;;;;6186591;23;20173;-86
2022/12/19 03:11:07;;;;;;;57.97;29.37;;;3.30;99.90;;;;;;6186335;23;20174;-86
2022/12/19 03:13:37;;;;;;;53.40;27.53;;;3.40;99.90;;;;;;6187036;23;20171;-87
2022/12/19 03:16:07;;;;;;;47.13;28.20;;;3.40;99.90;;;;;;6186687;23;20518;-86
2022/12/19 03:18:36;;;;;;;49.20;26.77;;;3.40;99.90;;;;;;6186441;23;20258;-88
2022/12/19 03:21:11;;;;;;;49.13;26.73;;;3.50;99.90;;;;;;6186564;23;20167;-86
2022/12/19 03:23:38;;;;;;;49.70;27.00;;;3.50;99.90;;;;;;6186738;23;20191;-87
2022/12/19 03:26:11;;;;;;;44.03;25.53;;;3.60;99.90;;;;;;6185895;23;20190;-85
2022/12/19 03:28:42;;;;;;;44.03;25.63;;;3.60;99.90;;;;;;6186704;23;20234;-85
2022/12/19 03:31:10;;;;;;;48.00;27.73;;;3.60;99.90;;;;;;6185162;23;20169;-86
2022/12/19 03:33:41;;;;;;;47.70;25.93;;;3.70;99.90;;;;;;6186483;23;20186;-87
2022/12/19 03:36:12;;;;;;;40.77;25.23;;;3.60;99.90;;;;;;6187444;23;20551;-87
2022/12/19 03:38:42;;;;;;;39.60;23.63;;;3.70;99.90;;;;;;6188735;23;20170;-88
2022/12/19 03:41:13;;;;;;;43.33;24.57;;;3.70;99.90;;;;;;6187841;23;20483;-87
2022/12/19 03:43:40;;;;;;;44.93;24.20;;;3.70;99.90;;;;;;6187191;23;20237;-87
2022/12/19 03:46:13;;;;;;;51.10;24.93;;;3.80;99.90;;;;;;6187970;23;20190;-87
2022/12/19 03:48:44;;;;;;;43.67;24.57;;;3.80;99.90;;;;;;6188678;23;20155;-86
2022/12/19 03:51:20;;;;;;;40.77;23.67;;;3.80;99.90;;;;;;6158698;23;20191;-84
2022/12/19 03:53:57;;;;;;;38.03;22.37;;;3.90;99.90;;;;;;6158574;23;20183;-87
2022/12/19 03:56:32;;;;;;;38.17;21.47;;;3.90;99.90;;;;;;6158822;23;20427;-87
2022/12/19 03:59:03;;;;;;;40.37;22.70;;;3.90;99.90;;;;;;6158044;23;20251;-86
2022/12/19 04:01:33;;;;;;;36.47;21.60;;;3.90;99.90;;;;;;6157756;23;20842;-86
2022/12/19 04:04:03;;;;;;;38.10;21.73;;;3.90;99.90;;;;;;6158636;23;20167;-87
2022/12/19 04:06:33;;;;;;;39.90;23.20;;;3.90;99.90;;;;;;6158254;23;20553;-86
2022/12/19 04:09:01;;;;;;;37.27;23.17;;;4.00;99.90;;;;;;6158410;23;20418;-85
2022/12/19 04:11:34;;;;;;;38.07;21.53;;;4.00;99.90;;;;;;6158347;23;20588;-86
2022/12/19 04:14:06;;;;;;;32.00;19.80;;;4.00;99.90;;;;;;6158062;23;20255;-89
2022/12/19 04:16:39;;;;;;;32.37;20.17;;;4.10;99.90;;;;;;6158462;23;20247;-88
2022/12/19 04:19:15;;;;;;;34.83;19.20;;;4.00;99.90;;;;;;6158598;23;20163;-88
2022/12/19 04:21:49;;;;;;;33.53;20.50;;;4.10;99.90;;;;;;6158501;23;20197;-88
2022/12/19 04:24:21;;;;;;;33.27;18.80;;;4.10;99.90;;;;;;6158464;23;20164;-87
2022/12/19 04:26:50;;;;;;;28.13;18.27;;;4.10;99.90;;;;;;6158002;23;20274;-86
2022/12/19 04:29:18;;;;;;;29.70;17.20;;;4.20;99.90;;;;;;6158194;23;20167;-86
2022/12/19 04:31:45;;;;;;;24.47;16.10;;;4.20;99.90;;;;;;6158424;23;20205;-88
2022/12/19 04:34:17;;;;;;;23.17;15.80;;;4.20;99.90;;;;;;6158666;23;20278;-88
2022/12/19 04:36:44;;;;;;;27.30;16.33;;;4.30;99.90;;;;;;6158245;23;20171;-88
2022/12/19 04:39:11;;;;;;;24.60;16.67;;;4.20;99.90;;;;;;6159492;23;20482;-89
2022/12/19 04:41:38;;;;;;;27.47;17.13;;;4.30;99.90;;;;;;6158405;23;20246;-89
2022/12/19 04:44:05;;;;;;;25.97;17.77;;;4.30;99.90;;;;;;6158070;23;20199;-86
2022/12/19 04:46:32;;;;;;;25.47;17.47;;;4.30;99.90;;;;;;6158306;23;20245;-87
2022/12/19 04:48:59;;;;;;;26.90;17.30;;;4.40;99.90;;;;;;6161305;23;20250;-87
2022/12/19 04:51:27;;;;;;;27.70;17.50;;;4.50;99.90;;;;;;6188292;23;20159;-85
2022/12/19 04:53:54;;;;;;;24.60;17.47;;;4.50;99.90;;;;;;6187461;23;20178;-87
2022/12/19 04:56:21;;;;;;;23.87;17.73;;;4.60;99.90;;;;;;6186938;23;20209;-87
2022/12/19 04:58:48;;;;;;;25.33;17.37;;;4.60;99.90;;;;;;6186542;23;20193;-87
2022/12/19 05:01:17;;;;;;;25.10;17.73;;;4.70;99.90;;;;;;6187945;23;20269;-89
2022/12/19 05:03:44;;;;;;;26.37;18.60;;;4.70;99.90;;;;;;6187992;23;20170;-86
2022/12/19 05:06:13;;;;;;;28.77;18.20;;;4.70;99.90;;;;;;6188533;23;20253;-87
2022/12/19 05:08:43;;;;;;;28.13;18.47;;;4.80;99.90;;;;;;6187928;23;20170;-87
2022/12/19 05:11:12;;;;;;;29.00;18.17;;;4.80;99.90;;;;;;6188030;23;20253;-87
2022/12/19 05:13:39;;;;;;;24.67;18.20;;;4.80;99.90;;;;;;6187949;23;20261;-86
2022/12/19 05:16:08;;;;;;;26.17;17.83;;;4.80;99.90;;;;;;6187852;23;20195;-87
2022/12/19 05:18:36;;;;;;;26.60;18.67;;;4.90;99.90;;;;;;6187616;23;20170;-87
2022/12/19 05:21:03;;;;;;;26.07;17.30;;;4.90;99.90;;;;;;6186274;23;20463;-88
2022/12/19 05:23:30;;;;;;;23.27;17.03;;;4.90;99.90;;;;;;6187751;23;20213;-87
2022/12/19 05:25:59;;;;;;;20.43;15.80;;;4.90;99.90;;;;;;6187430;23;20170;-86
2022/12/19 05:28:27;;;;;;;23.63;16.47;;;5.00;99.90;;;;;;6187463;23;20171;-87
2022/12/19 05:31:03;;;;;;;19.43;15.30;;;5.00;99.90;;;;;;6185648;23;20537;-86
2022/12/19 05:33:30;;;;;;;20.33;14.87;;;5.10;99.90;;;;;;6186023;23;20721;-86
2022/12/19 05:35:57;;;;;;;19.93;16.13;;;5.20;99.90;;;;;;6187699;23;20254;-86
2022/12/19 05:38:25;;;;;;;21.50;16.00;;;5.20;99.90;;;;;;6188628;23;20585;-85
2022/12/19 05:40:52;;;;;;;21.17;15.53;;;5.20;99.90;;;;;;6188424;23;20173;-86
2022/12/19 05:43:21;;;;;;;20.00;15.97;;;5.20;99.90;;;;;;6188304;23;20490;-86
2022/12/19 05:45:48;;;;;;;20.07;15.60;;;5.30;99.90;;;;;;6187647;23;20237;-85
2022/12/19 05:48:15;;;;;;;20.73;15.93;;;5.30;99.90;;;;;;6188568;23;20225;-86
2022/12/19 05:50:42;;;;;;;19.63;15.17;;;5.30;99.90;;;;;;6187840;23;20214;-85
2022/12/19 05:53:09;;;;;;;19.70;15.13;;;5.40;99.90;;;;;;6188163;23;20489;-86
2022/12/19 05:55:36;;;;;;;22.10;16.37;;;5.40;99.90;;;;;;6192476;23;20206;-86
2022/12/19 05:58:02;;;;;;;21.73;16.67;;;5.40;99.90;;;;;;6188855;23;20269;-85
2022/12/19 06:00:31;;;;;;;20.77;16.17;;;5.50;99.90;;;;;;6189255;23;20167;-87
2022/12/19 06:02:59;;;;;;;20.67;15.47;;;5.50;99.90;;;;;;6188435;23;20265;-85
2022/12/19 06:05:28;;;;;;;21.90;16.20;;;5.50;99.90;;;;;;6188490;23;20500;-86
2022/12/19 06:07:55;;;;;;;20.93;15.87;;;5.60;99.90;;;;;;6187943;23;20194;-82
2022/12/19 06:10:22;;;;;;;22.07;15.57;;;5.70;99.90;;;;;;6187767;23;20250;-85
2022/12/19 06:12:49;;;;;;;22.47;16.60;;;5.70;99.90;;;;;;6187030;23;20190;-84
2022/12/19 06:15:16;;;;;;;21.80;16.67;;;5.80;99.90;;;;;;6186716;23;20171;-86
2022/12/19 06:17:44;;;;;;;23.80;17.57;;;5.80;99.90;;;;;;6187143;23;20245;-85
2022/12/19 06:20:11;;;;;;;21.23;16.47;;;5.80;99.90;;;;;;6186950;23;20258;-84
2022/12/19 06:22:38;;;;;;;21.43;16.80;;;5.80;99.90;;;;;;6186795;23;20250;-85
2022/12/19 06:25:06;;;;;;;23.00;17.17;;;5.80;99.90;;;;;;6185810;23;20171;-85
2022/12/19 06:27:33;;;;;;;22.27;16.60;;;5.80;99.90;;;;;;6186588;23;20249;-85
2022/12/19 06:30:00;;;;;;;28.33;17.80;;;5.80;99.90;;;;;;6186491;23;20493;-84
2022/12/19 06:32:27;;;;;;;25.27;18.90;;;5.80;99.90;;;;;;6187202;23;20171;-85
2022/12/19 06:34:56;;;;;;;24.70;18.60;;;5.90;99.90;;;;;;6186576;23;20171;-83
2022/12/19 06:37:23;;;;;;;22.33;17.67;;;5.90;99.90;;;;;;6187537;23;20454;-86
2022/12/19 06:39:50;;;;;;;28.50;19.37;;;6.00;99.90;;;;;;6186204;23;20700;-84
2022/12/19 06:42:22;;;;;;;26.17;18.80;;;6.00;99.90;;;;;;6186420;23;20167;-84
2022/12/19 06:44:50;;;;;;;27.20;19.93;;;6.10;99.90;;;;;;6186764;23;20150;-85
2022/12/19 06:47:17;;;;;;;25.23;18.33;;;6.10;99.90;;;;;;6187176;23;20194;-85
2022/12/19 06:49:43;;;;;;;28.23;18.80;;;6.10;99.90;;;;;;6185934;23;20273;-84
2022/12/19 06:52:12;;;;;;;25.17;18.10;;;6.20;99.90;;;;;;6186645;23;20594;-85
2022/12/19 06:54:40;;;;;;;24.60;18.27;;;6.20;99.90;;;;;;6186324;23;20189;-84
2022/12/19 06:57:06;;;;;;;23.10;18.03;;;6.30;99.90;;;;;;6186660;23;20163;-86
2022/12/19 06:59:34;;;;;;;23.77;17.83;;;6.40;99.90;;;;;;6187325;23;20200;-85
2022/12/19 07:02:06;;;;;;;27.03;17.80;;;6.40;99.90;;;;;;6187122;23;20676;-86
2022/12/19 07:04:37;;;;;;;22.67;17.13;;;6.50;99.90;;;;;;6186850;23;20582;-85
2022/12/19 07:07:05;;;;;;;23.90;18.47;;;6.50;99.90;;;;;;6186954;23;20210;-85
2022/12/19 07:09:34;;;;;;;24.00;17.80;;;6.60;99.90;;;;;;6186225;23;20617;-85
2022/12/19 07:12:01;;;;;;;21.97;16.97;;;6.70;99.90;;;;;;6186850;23;20206;-85
2022/12/19 07:14:28;;;;;;;23.17;17.00;;;6.70;99.90;;;;;;6187304;23;20171;-86
2022/12/19 07:16:57;;;;;;;24.83;17.63;;;6.80;99.90;;;;;;6186233;23;20171;-85
2022/12/19 07:19:26;;;;;;;26.43;18.40;;;6.90;99.90;;;;;;6186159;23;20193;-85
2022/12/19 07:21:54;;;;;;;24.77;17.23;;;7.00;99.90;;;;;;6186789;23;20249;-85
2022/12/19 07:24:21;;;;;;;25.43;18.40;;;7.00;99.90;;;;;;6186038;23;20194;-86
2022/12/19 07:26:50;;;;;;;28.17;19.30;;;7.00;99.90;;;;;;6186485;23;20620;-85
2022/12/19 07:29:17;;;;;;;24.07;18.90;;;7.10;99.90;;;;;;6186325;23;20620;-85
2022/12/19 07:31:44;;;;;;;25.60;18.23;;;7.10;99.90;;;;;;6185728;23;20615;-84
2022/12/19 07:34:11;;;;;;;26.87;18.73;;;7.20;99.90;;;;;;6186859;23;20174;-84
2022/12/19 07:36:38;;;;;;;27.10;19.00;;;7.20;99.90;;;;;;6186216;23;20795;-83
2022/12/19 07:39:05;;;;;;;25.70;18.33;;;7.20;99.90;;;;;;6186280;23;20213;-84
2022/12/19 07:41:32;;;;;;;26.47;19.57;;;7.10;99.90;;;;;;6186467;23;20193;-84
2022/12/19 07:44:00;;;;;;;27.53;19.10;;;7.20;99.90;;;;;;6186515;23;20175;-83
2022/12/19 07:46:29;;;;;;;26.33;18.53;;;7.20;99.90;;;;;;6186043;23;20210;-85
2022/12/19 07:48:59;;;;;;;26.83;18.27;;;7.20;99.90;;;;;;6185918;23;20194;-84
2022/12/19 07:51:26;;;;;;;27.63;18.30;;;7.20;99.90;;;;;;6184802;23;20173;-84
2022/12/19 07:53:52;;;;;;;24.60;17.67;;;7.30;99.90;;;;;;6186732;23;20167;-86
2022/12/19 07:56:19;;;;;;;24.57;18.23;;;7.30;99.90;;;;;;6186472;23;20173;-85
2022/12/19 07:58:46;;;;;;;24.40;18.33;;;7.40;99.90;;;;;;6186530;23;20199;-86
2022/12/19 08:01:14;;;;;;;24.37;17.97;;;7.50;99.90;;;;;;6185678;23;20274;-85
2022/12/19 08:03:44;;;;;;;27.97;17.83;;;7.50;99.90;;;;;;6186098;23;20173;-85
2022/12/19 08:06:11;;;;;;;28.27;17.73;;;7.50;99.90;;;;;;6185863;23;20265;-87
2022/12/19 08:08:37;;;;;;;26.50;17.63;;;7.60;99.90;;;;;;6186811;23;20266;-86
2022/12/19 08:11:13;;;;;;;23.47;17.70;;;7.70;99.90;;;;;;6186581;23;20246;-83
2022/12/19 08:13:40;;;;;;;25.63;17.07;;;7.60;99.90;;;;;;6185951;23;20478;-87
2022/12/19 08:16:08;;;;;;;27.63;16.47;;;7.70;99.90;;;;;;6186902;23;20201;-88
2022/12/19 08:18:37;;;;;;;25.03;16.10;;;7.70;99.90;;;;;;6187073;23;20163;-89
2022/12/19 08:21:04;;;;;;;22.23;15.33;;;7.70;99.90;;;;;;6185782;23;20258;-85
2022/12/19 08:23:31;;;;;;;24.70;15.77;;;7.70;99.90;;;;;;6186556;23;20167;-86
2022/12/19 08:26:02;;;;;;;22.90;16.00;;;7.70;99.90;;;;;;6186024;23;20166;-83
2022/12/19 08:28:29;;;;;;;24.30;15.67;;;7.70;99.90;;;;;;6185909;23;20197;-83
2022/12/19 08:30:56;;;;;;;22.10;15.33;;;7.80;99.90;;;;;;6187448;23;20179;-85
2022/12/19 08:33:23;;;;;;;22.00;14.97;;;7.70;99.90;;;;;;6187471;23;20166;-85
2022/12/19 08:35:54;;;;;;;19.90;14.33;;;7.80;99.90;;;;;;6187431;23;20165;-85
2022/12/19 08:38:20;;;;;;;20.80;14.83;;;7.80;99.90;;;;;;6186794;23;20194;-82
2022/12/19 08:40:53;;;;;;;21.03;14.47;;;7.80;99.90;;;;;;6185218;23;20222;-81
2022/12/19 08:43:20;;;;;;;20.20;13.93;;;7.80;99.90;;;;;;6185895;23;20697;-80
2022/12/19 08:45:48;;;;;;;24.47;14.57;;;7.80;99.90;;;;;;6186406;23;20249;-83
2022/12/19 08:48:16;;;;;;;21.83;14.03;;;7.70;99.90;;;;;;6185767;23;20273;-82
2022/12/19 08:50:50;;;;;;;24.57;14.90;;;7.70;99.90;;;;;;6183448;23;20210;-81
2022/12/19 08:53:18;;;;;;;21.47;13.50;;;7.70;99.90;;;;;;6185773;23;20174;-82
2022/12/19 08:55:45;;;;;;;16.43;13.27;;;7.80;99.90;;;;;;6181802;23;20171;-82
2022/12/19 08:58:13;;;;;;;17.40;12.90;;;7.90;99.90;;;;;;6186316;23;20506;-80
2022/12/19 09:00:40;;;;;;;16.57;12.03;;;7.90;99.90;;;;;;6185613;23;20171;-82
2022/12/19 09:03:07;;;;;;;22.57;12.73;;;7.90;99.90;;;;;;6185901;23;20269;-83
2022/12/19 09:05:34;;;;;;;17.03;12.57;;;8.00;99.90;;;;;;6186589;23;20167;-83
2022/12/19 09:08:01;;;;;;;22.63;14.07;;;8.00;99.90;;;;;;6186147;23;20225;-83
2022/12/19 09:10:30;;;;;;;19.57;12.33;;;8.00;99.90;;;;;;6186198;23;20254;-83
2022/12/19 09:12:57;;;;;;;22.70;13.80;;;8.00;99.90;;;;;;6186006;23;20182;-82
2022/12/19 09:15:24;;;;;;;16.27;11.97;;;7.90;99.90;;;;;;6186289;23;20187;-83
2022/12/19 09:17:51;;;;;;;21.17;12.80;;;7.90;99.90;;;;;;6184719;23;20163;-83
2022/12/19 09:20:17;;;;;;;18.77;12.33;;;7.90;99.90;;;;;;6185420;23;20598;-82
2022/12/19 09:22:44;;;;;;;17.53;12.73;;;7.90;99.90;;;;;;6185215;23;20230;-81
2022/12/19 09:25:11;;;;;;;18.60;12.50;;;8.00;99.90;;;;;;6186381;23;20254;-82
2022/12/19 09:27:40;;;;;;;15.83;12.27;;;7.90;99.90;;;;;;6186245;23;20201;-83
2022/12/19 09:30:08;;;;;;;16.77;11.40;;;7.90;99.90;;;;;;6185075;23;20178;-82
2022/12/19 09:32:35;;;;;;;16.77;11.13;;;7.90;99.90;;;;;;6185371;23;20163;-82
2022/12/19 09:35:02;;;;;;;19.57;11.90;;;8.00;99.90;;;;;;6185297;23;20225;-83
2022/12/19 09:37:29;;;;;;;19.93;12.57;;;8.00;99.90;;;;;;6184590;23;20744;-82
2022/12/19 09:39:57;;;;;;;13.93;11.43;;;8.00;99.90;;;;;;6185098;23;20167;-81
2022/12/19 09:42:57;;;;;;;18.93;12.00;;;8.00;99.90;;;;;;6184555;23;20178;-81
2022/12/19 09:45:44;;;;;;;14.67;11.03;;;8.00;99.90;;;;;;6183899;23;20167;-81
2022/12/19 09:48:14;;;;;;;21.80;10.73;;;8.10;99.90;;;;;;6184944;23;20209;-81
2022/12/19 09:50:48;;;;;;;15.37;11.43;;;8.10;99.90;;;;;;6184070;23;20199;-82
2022/12/19 09:53:22;;;;;;;16.27;11.37;;;8.20;99.90;;;;;;6184888;23;20237;-81
2022/12/19 09:55:52;;;;;;;16.57;11.30;;;8.10;99.90;;;;;;6185279;23;20191;-80
2022/12/19 09:58:31;;;;;;;16.30;11.57;;;8.10;99.90;;;;;;6184831;23;20198;-80
2022/12/19 10:01:00;;;;;;;17.00;11.97;;;8.00;99.90;;;;;;6185075;23;20178;-81
2022/12/19 10:03:32;;;;;;;16.43;10.70;;;8.00;99.90;;;;;;6185011;23;20226;-81
2022/12/19 10:06:02;;;;;;;20.10;11.60;;;8.00;99.90;;;;;;6182686;23;20253;-80
2022/12/19 10:08:34;;;;;;;14.73;10.93;;;7.90;99.90;;;;;;6185500;23;20266;-80
2022/12/19 10:11:09;;;;;;;16.93;11.07;;;8.00;99.90;;;;;;6183844;23;20606;-80
2022/12/19 10:14:04;;;;;;;19.00;11.77;;;8.00;99.90;;;;;;6183888;23;20239;-80
2022/12/19 10:16:46;;;;;;;16.20;11.17;;;8.00;99.90;;;;;;6184443;23;20242;-80
2022/12/19 10:19:20;;;;;;;19.07;12.13;;;8.00;99.90;;;;;;6184314;23;20186;-79
2022/12/19 10:21:54;;;;;;;17.43;11.73;;;8.00;99.90;;;;;;6184572;23;20170;-78
2022/12/19 10:24:36;;;;;;;16.27;12.50;;;8.10;99.90;;;;;;6183660;23;20194;-80
2022/12/19 10:27:13;;;;;;;16.30;11.60;;;8.10;99.90;;;;;;6183586;23;20460;-79
2022/12/19 10:30:01;;;;;;;13.67;11.90;;;8.10;99.90;;;;;;6184082;23;20216;-77
2022/12/19 10:32:36;;;;;;;19.37;12.03;;;8.20;99.90;;;;;;6183805;23;20179;-80
2022/12/19 10:35:13;;;;;;;16.47;12.43;;;8.30;99.90;;;;;;6183770;23;20242;-81
2022/12/19 10:37:47;;;;;;;15.60;12.13;;;8.20;99.90;;;;;;6184302;23;20158;-79
2022/12/19 10:40:20;;;;;;;16.83;11.97;;;8.20;99.90;;;;;;6184524;23;20167;-79
2022/12/19 10:42:54;;;;;;;13.67;11.43;;;8.20;99.90;;;;;;6183370;23;20267;-79
2022/12/19 10:45:28;;;;;;;15.90;12.37;;;8.30;99.90;;;;;;6183488;23;20163;-80
2022/12/19 10:47:56;;;;;;;14.37;11.93;;;8.30;99.90;;;;;;6183868;23;20163;-79
2022/12/19 10:50:25;;;;;;;18.53;11.73;;;8.30;99.90;;;;;;6183854;23;20277;-81
2022/12/19 10:52:55;;;;;;;16.33;12.13;;;8.20;99.90;;;;;;6184251;23;20246;-81
2022/12/19 10:55:30;;;;;;;15.27;11.37;;;8.20;99.90;;;;;;6183436;23;20547;-80
2022/12/19 10:58:00;;;;;;;14.60;10.93;;;8.20;99.90;;;;;;6185060;23;20166;-81
2022/12/19 11:00:29;;;;;;;13.13;10.40;;;8.30;99.90;;;;;;6184573;23;20166;-80
2022/12/19 11:03:11;;;;;;;11.60;9.60;;;8.40;99.90;;;;;;6184389;23;20193;-81
2022/12/19 11:05:43;;;;;;;12.17;8.97;;;8.50;99.90;;;;;;6185046;23;20170;-81
2022/12/19 11:08:16;;;;;;;13.43;10.23;;;8.50;99.90;;;;;;6184872;23;20182;-80
2022/12/19 11:10:44;;;;;;;13.50;10.27;;;8.40;99.90;;;;;;6184722;23;20586;-81
2022/12/19 11:13:21;;;;;;;13.57;9.53;;;8.40;99.90;;;;;;6184487;23;20163;-81
2022/12/19 11:15:51;;;;;;;14.77;10.43;;;8.50;99.90;;;;;;6183977;23;20194;-80
2022/12/19 11:18:18;;;;;;;15.23;9.10;;;8.60;99.90;;;;;;6182061;23;20574;-80
2022/12/19 11:20:56;;;;;;;11.17;8.73;;;8.60;99.90;;;;;;6183854;23;20186;-80
2022/12/19 11:23:25;;;;;;;12.67;9.43;;;8.60;99.90;;;;;;6184084;23;20253;-80
2022/12/19 11:25:59;;;;;;;12.17;9.73;;;8.60;99.90;;;;;;6182971;23;20579;-80
2022/12/19 11:28:29;;;;;;;13.83;9.13;;;8.60;99.90;;;;;;6186664;23;20191;-80
2022/12/19 11:31:04;;;;;;;12.53;8.80;;;8.60;99.90;;;;;;6183905;23;20206;-80
2022/12/19 11:33:32;;;;;;;11.37;8.93;;;8.60;99.90;;;;;;6184891;23;20571;-81
2022/12/19 11:36:01;;;;;;;12.53;9.27;;;8.60;99.90;;;;;;6185230;23;20207;-80
2022/12/19 11:38:42;;;;;;;11.63;8.50;;;8.60;99.90;;;;;;6184240;23;20175;-81
2022/12/19 11:41:14;;;;;;;10.33;8.50;;;8.70;99.90;;;;;;6185305;23;20246;-80
2022/12/19 11:43:52;;;;;;;11.80;9.13;;;8.70;99.90;;;;;;6183921;23;20167;-80
2022/12/19 11:46:33;;;;;;;10.63;8.47;;;8.70;99.90;;;;;;6184153;23;20555;-81
2022/12/19 11:49:05;;;;;;;11.77;8.47;;;8.70;99.90;;;;;;6183945;23;20187;-81
2022/12/19 11:51:39;;;;;;;8.70;7.73;;;8.70;99.90;;;;;;6182930;23;20412;-81
2022/12/19 11:54:14;;;;;;;12.57;8.10;;;8.70;99.90;;;;;;6183432;23;20170;-81
2022/12/19 11:56:41;;;;;;;12.63;8.40;;;8.70;99.90;;;;;;6183880;23;20626;-81
2022/12/19 11:59:16;;;;;;;11.13;7.80;;;8.80;99.90;;;;;;6183737;23;20170;-81
2022/12/19 12:01:58;;;;;;;12.30;8.23;;;8.80;99.90;;;;;;6183692;23;20273;-81
2022/12/19 12:04:54;;;;;;;14.67;8.17;;;8.80;99.90;;;;;;6182551;23;20532;-82
2022/12/19 12:07:21;;;;;;;10.13;7.70;;;8.80;99.90;;;;;;6183648;23;20193;-80
2022/12/19 12:09:55;;;;;;;9.47;8.20;;;8.80;99.90;;;;;;6185782;23;20222;-80
2022/12/19 12:12:25;;;;;;;10.23;8.13;;;8.80;99.90;;;;;;6185478;23;20168;-81
2022/12/19 12:15:16;;;;;;;10.07;7.40;;;8.80;99.90;;;;;;6185183;23;20175;-80
2022/12/19 12:17:56;;;;;;;8.97;7.93;;;8.80;99.90;;;;;;6186134;23;20257;-81
2022/12/19 12:20:34;;;;;;;10.07;8.07;;;8.80;99.90;;;;;;6185789;23;20159;-81
2022/12/19 12:23:22;;;;;;;10.63;8.53;;;8.80;99.90;;;;;;6185624;23;20249;-80
2022/12/19 12:25:57;;;;;;;11.20;7.27;;;8.90;99.90;;;;;;6185408;23;20170;-81
2022/12/19 12:28:48;;;;;;;8.23;7.40;;;8.90;99.90;;;;;;6186371;23;20202;-81
2022/12/19 12:31:45;;;;;;;10.13;7.70;;;8.90;99.90;;;;;;6186512;23;20436;-81
2022/12/19 12:34:44;;;;;;;8.37;7.20;;;8.90;99.90;;;;;;6166739;23;20250;-81
2022/12/19 12:37:26;;;;;;;8.90;6.70;;;9.00;99.90;;;;;;6181171;23;20697;-81
2022/12/19 12:40:05;;;;;;;8.40;6.70;;;9.20;99.90;;;;;;6183010;23;20242;-82
2022/12/19 12:42:45;;;;;;;8.57;6.73;;;9.20;99.90;;;;;;6186112;23;20174;-81
2022/12/19 12:45:23;;;;;;;11.33;6.60;;;9.30;99.90;;;;;;6184728;23;20237;-80
2022/12/19 12:47:52;;;;;;;7.43;6.73;;;9.30;99.90;;;;;;6185039;23;20197;-79
2022/12/19 12:50:24;;;;;;;8.33;7.10;;;9.30;99.90;;;;;;6185516;23;20211;-79
2022/12/19 12:52:53;;;;;;;11.03;7.17;;;9.30;99.90;;;;;;6186297;23;20189;-79
2022/12/19 12:55:26;;;;;;;10.83;6.57;;;9.30;99.90;;;;;;6185270;23;20174;-80
2022/12/19 12:57:53;;;;;;;6.23;5.63;;;9.40;99.90;;;;;;6186367;23;20163;-81